sensor_id;sensor_type;location;lat;lon;timestamp;P1;durP1;ratioP1;P2;durP2;ratioP2
7142;SDS011;3613;48.902;9.204;2022-11-14T00:00:14;52.30;;;25.60;;
7142;SDS011;3613;48.902;9.204;2022-11-14T00:02:40;60.50;;;25.67;;
7142;SDS011;3613;48.902;9.204;2022-11-14T00:05:08;55.03;;;26.07;;
7142;SDS011;3613;48.902;9.204;2022-11-14T00:07:35;56.63;;;26.87;;
7142;SDS011;3613;48.902;9.204;2022-11-14T00:10:01;59.20;;;27.67;;
7142;SDS011;3613;48.902;9.204;2022-11-14T00:12:29;52.03;;;26.37;;
7142;SDS011;3613;48.902;9.204;2022-11-14T00:14:55;57.53;;;26.67;;
7142;SDS011;3613;48.902;9.204;2022-11-14T00:17:20;59.40;;;27.97;;
7142;SDS011;3613;48.902;9.204;2022-11-14T00:19:48;52.33;;;25.90;;
7142;SDS011;3613;48.902;9.204;2022-11-14T00:22:16;56.43;;;26.17;;
7142;SDS011;3613;48.902;9.204;2022-11-14T00:24:42;50.67;;;26.50;;
7142;SDS011;3613;48.902;9.204;2022-11-14T00:27:10;56.30;;;26.83;;
7142;SDS011;3613;48.902;9.204;2022-11-14T00:29:36;61.33;;;27.10;;
7142;SDS011;3613;48.902;9.204;2022-11-14T00:32:05;55.93;;;26.07;;
7142;SDS011;3613;48.902;9.204;2022-11-14T00:34:33;51.90;;;26.53;;
7142;SDS011;3613;48.902;9.204;2022-11-14T00:37:01;57.63;;;29.13;;
7142;SDS011;3613;48.902;9.204;2022-11-14T00:39:29;47.30;;;24.77;;
7142;SDS011;3613;48.902;9.204;2022-11-14T00:41:57;52.53;;;25.63;;
7142;SDS011;3613;48.902;9.204;2022-11-14T00:44:25;51.47;;;24.10;;
7142;SDS011;3613;48.902;9.204;2022-11-14T00:46:51;47.37;;;24.30;;
7142;SDS011;3613;48.902;9.204;2022-11-14T00:49:19;48.80;;;24.03;;
7142;SDS011;3613;48.902;9.204;2022-11-14T00:51:44;51.37;;;25.37;;
7142;SDS011;3613;48.902;9.204;2022-11-14T00:54:12;48.60;;;24.00;;
7142;SDS011;3613;48.902;9.204;2022-11-14T00:56:38;49.53;;;24.30;;
7142;SDS011;3613;48.902;9.204;2022-11-14T00:59:03;48.77;;;23.57;;
7142;SDS011;3613;48.902;9.204;2022-11-14T01:01:29;44.43;;;22.40;;
7142;SDS011;3613;48.902;9.204;2022-11-14T01:03:57;45.30;;;22.27;;
7142;SDS011;3613;48.902;9.204;2022-11-14T01:06:23;46.90;;;22.10;;
7142;SDS011;3613;48.902;9.204;2022-11-14T01:08:49;43.27;;;22.10;;
7142;SDS011;3613;48.902;9.204;2022-11-14T01:11:16;37.63;;;20.63;;
7142;SDS011;3613;48.902;9.204;2022-11-14T01:13:45;41.03;;;22.07;;
7142;SDS011;3613;48.902;9.204;2022-11-14T01:16:12;37.63;;;21.57;;
7142;SDS011;3613;48.902;9.204;2022-11-14T01:18:43;43.10;;;21.23;;
7142;SDS011;3613;48.902;9.204;2022-11-14T01:21:10;39.30;;;21.40;;
7142;SDS011;3613;48.902;9.204;2022-11-14T01:23:37;46.67;;;23.37;;
7142;SDS011;3613;48.902;9.204;2022-11-14T01:26:07;40.07;;;21.30;;
7142;SDS011;3613;48.902;9.204;2022-11-14T01:28:34;43.23;;;21.33;;
7142;SDS011;3613;48.902;9.204;2022-11-14T01:31:08;44.47;;;21.77;;
7142;SDS011;3613;48.902;9.204;2022-11-14T01:33:35;43.03;;;21.45;;
7142;SDS011;3613;48.902;9.204;2022-11-14T01:36:03;38.45;;;21.23;;
7142;SDS011;3613;48.902;9.204;2022-11-14T01:38:30;41.63;;;21.73;;
7142;SDS011;3613;48.902;9.204;2022-11-14T01:40:55;49.23;;;21.97;;
7142;SDS011;3613;48.902;9.204;2022-11-14T01:46:02;42.65;;;21.73;;
7142;SDS011;3613;48.902;9.204;2022-11-14T01:53:47;47.85;;;24.52;;
7142;SDS011;3613;48.902;9.204;2022-11-14T01:56:16;44.53;;;23.05;;
7142;SDS011;3613;48.902;9.204;2022-11-14T01:58:51;49.40;;;23.98;;
7142;SDS011;3613;48.902;9.204;2022-11-14T02:01:22;47.78;;;22.48;;
7142;SDS011;3613;48.902;9.204;2022-11-14T02:03:50;45.63;;;23.38;;
7142;SDS011;3613;48.902;9.204;2022-11-14T02:06:21;44.17;;;23.10;;
7142;SDS011;3613;48.902;9.204;2022-11-14T02:08:51;40.40;;;22.33;;
7142;SDS011;3613;48.902;9.204;2022-11-14T02:11:21;44.13;;;23.50;;
7142;SDS011;3613;48.902;9.204;2022-11-14T02:13:47;46.90;;;22.93;;
7142;SDS011;3613;48.902;9.204;2022-11-14T02:16:13;44.77;;;23.27;;
7142;SDS011;3613;48.902;9.204;2022-11-14T02:18:39;49.55;;;24.08;;
7142;SDS011;3613;48.902;9.204;2022-11-14T02:21:05;40.43;;;22.77;;
7142;SDS011;3613;48.902;9.204;2022-11-14T02:23:34;43.50;;;22.45;;
7142;SDS011;3613;48.902;9.204;2022-11-14T02:25:59;45.07;;;23.10;;
7142;SDS011;3613;48.902;9.204;2022-11-14T02:28:27;48.10;;;23.70;;
7142;SDS011;3613;48.902;9.204;2022-11-14T02:30:53;43.40;;;23.17;;
7142;SDS011;3613;48.902;9.204;2022-11-14T02:33:21;40.78;;;21.30;;
7142;SDS011;3613;48.902;9.204;2022-11-14T02:35:49;39.35;;;19.95;;
7142;SDS011;3613;48.902;9.204;2022-11-14T02:38:14;47.30;;;23.60;;
7142;SDS011;3613;48.902;9.204;2022-11-14T02:40:40;41.50;;;22.20;;
7142;SDS011;3613;48.902;9.204;2022-11-14T02:43:06;41.00;;;20.87;;
7142;SDS011;3613;48.902;9.204;2022-11-14T02:45:31;46.87;;;21.10;;
7142;SDS011;3613;48.902;9.204;2022-11-14T02:47:59;55.45;;;22.17;;
7142;SDS011;3613;48.902;9.204;2022-11-14T02:50:27;44.50;;;21.38;;
7142;SDS011;3613;48.902;9.204;2022-11-14T02:52:53;47.80;;;22.00;;
7142;SDS011;3613;48.902;9.204;2022-11-14T02:55:20;47.63;;;23.50;;
7142;SDS011;3613;48.902;9.204;2022-11-14T02:57:46;53.83;;;24.67;;
7142;SDS011;3613;48.902;9.204;2022-11-14T03:00:16;52.83;;;22.30;;
7142;SDS011;3613;48.902;9.204;2022-11-14T03:02:45;48.27;;;22.77;;
7142;SDS011;3613;48.902;9.204;2022-11-14T03:05:12;47.38;;;23.02;;
7142;SDS011;3613;48.902;9.204;2022-11-14T03:07:38;55.77;;;24.67;;
7142;SDS011;3613;48.902;9.204;2022-11-14T03:10:09;51.80;;;24.73;;
7142;SDS011;3613;48.902;9.204;2022-11-14T03:12:35;58.22;;;25.10;;
7142;SDS011;3613;48.902;9.204;2022-11-14T03:15:04;51.97;;;24.58;;
7142;SDS011;3613;48.902;9.204;2022-11-14T03:17:32;67.07;;;26.55;;
7142;SDS011;3613;48.902;9.204;2022-11-14T03:19:59;59.07;;;25.60;;
7142;SDS011;3613;48.902;9.204;2022-11-14T03:22:25;53.20;;;25.30;;
7142;SDS011;3613;48.902;9.204;2022-11-14T03:24:53;54.70;;;25.27;;
7142;SDS011;3613;48.902;9.204;2022-11-14T03:27:21;54.53;;;24.33;;
7142;SDS011;3613;48.902;9.204;2022-11-14T03:29:47;57.50;;;24.37;;
7142;SDS011;3613;48.902;9.204;2022-11-14T03:32:12;55.27;;;24.70;;
7142;SDS011;3613;48.902;9.204;2022-11-14T03:34:38;60.93;;;24.87;;
7142;SDS011;3613;48.902;9.204;2022-11-14T03:37:06;48.17;;;23.27;;
7142;SDS011;3613;48.902;9.204;2022-11-14T03:39:32;52.33;;;23.67;;
7142;SDS011;3613;48.902;9.204;2022-11-14T03:42:00;51.55;;;24.88;;
7142;SDS011;3613;48.902;9.204;2022-11-14T03:44:26;49.07;;;22.53;;
7142;SDS011;3613;48.902;9.204;2022-11-14T03:46:51;48.33;;;22.83;;
7142;SDS011;3613;48.902;9.204;2022-11-14T03:49:17;45.10;;;22.63;;
7142;SDS011;3613;48.902;9.204;2022-11-14T03:51:43;44.10;;;23.10;;
7142;SDS011;3613;48.902;9.204;2022-11-14T03:54:13;50.40;;;23.45;;
7142;SDS011;3613;48.902;9.204;2022-11-14T03:56:39;49.92;;;23.42;;
7142;SDS011;3613;48.902;9.204;2022-11-14T03:59:04;50.43;;;24.23;;
7142;SDS011;3613;48.902;9.204;2022-11-14T04:01:30;44.90;;;22.40;;
7142;SDS011;3613;48.902;9.204;2022-11-14T04:03:55;52.37;;;23.33;;
7142;SDS011;3613;48.902;9.204;2022-11-14T04:06:23;50.35;;;22.08;;
7142;SDS011;3613;48.902;9.204;2022-11-14T04:08:49;51.63;;;23.33;;
7142;SDS011;3613;48.902;9.204;2022-11-14T04:11:18;42.80;;;22.33;;
7142;SDS011;3613;48.902;9.204;2022-11-14T04:13:46;45.15;;;23.17;;
7142;SDS011;3613;48.902;9.204;2022-11-14T04:16:14;50.25;;;22.15;;
7142;SDS011;3613;48.902;9.204;2022-11-14T04:18:42;40.27;;;22.20;;
7142;SDS011;3613;48.902;9.204;2022-11-14T04:21:07;49.47;;;22.70;;
7142;SDS011;3613;48.902;9.204;2022-11-14T04:23:33;53.93;;;22.87;;
7142;SDS011;3613;48.902;9.204;2022-11-14T04:25:58;46.20;;;22.70;;
7142;SDS011;3613;48.902;9.204;2022-11-14T04:28:26;52.80;;;24.83;;
7142;SDS011;3613;48.902;9.204;2022-11-14T04:30:54;52.53;;;24.92;;
7142;SDS011;3613;48.902;9.204;2022-11-14T04:33:20;50.17;;;23.40;;
7142;SDS011;3613;48.902;9.204;2022-11-14T04:35:47;54.85;;;23.90;;
7142;SDS011;3613;48.902;9.204;2022-11-14T04:38:13;52.57;;;23.90;;
7142;SDS011;3613;48.902;9.204;2022-11-14T04:40:44;59.43;;;25.87;;
7142;SDS011;3613;48.902;9.204;2022-11-14T04:43:13;60.13;;;25.85;;
7142;SDS011;3613;48.902;9.204;2022-11-14T04:45:40;50.37;;;24.23;;
7142;SDS011;3613;48.902;9.204;2022-11-14T04:48:06;55.17;;;24.73;;
7142;SDS011;3613;48.902;9.204;2022-11-14T04:50:34;48.78;;;22.42;;
7142;SDS011;3613;48.902;9.204;2022-11-14T04:52:59;53.80;;;23.00;;
7142;SDS011;3613;48.902;9.204;2022-11-14T04:55:27;48.38;;;22.55;;
7142;SDS011;3613;48.902;9.204;2022-11-14T04:57:56;57.53;;;24.03;;
7142;SDS011;3613;48.902;9.204;2022-11-14T05:00:22;55.53;;;24.63;;
7142;SDS011;3613;48.902;9.204;2022-11-14T05:02:48;55.30;;;24.55;;
7142;SDS011;3613;48.902;9.204;2022-11-14T05:05:14;49.53;;;23.33;;
7142;SDS011;3613;48.902;9.204;2022-11-14T05:07:40;51.73;;;23.40;;
7142;SDS011;3613;48.902;9.204;2022-11-14T05:10:05;54.13;;;24.20;;
7142;SDS011;3613;48.902;9.204;2022-11-14T05:12:34;56.45;;;24.27;;
7142;SDS011;3613;48.902;9.204;2022-11-14T05:15:00;53.80;;;24.88;;
7142;SDS011;3613;48.902;9.204;2022-11-14T05:17:26;60.03;;;23.73;;
7142;SDS011;3613;48.902;9.204;2022-11-14T05:19:52;59.05;;;23.85;;
7142;SDS011;3613;48.902;9.204;2022-11-14T05:22:17;59.23;;;25.27;;
7142;SDS011;3613;48.902;9.204;2022-11-14T05:24:43;55.57;;;24.70;;
7142;SDS011;3613;48.902;9.204;2022-11-14T05:27:08;53.80;;;23.50;;
7142;SDS011;3613;48.902;9.204;2022-11-14T05:29:36;56.67;;;23.40;;
7142;SDS011;3613;48.902;9.204;2022-11-14T05:32:02;53.67;;;23.58;;
7142;SDS011;3613;48.902;9.204;2022-11-14T05:34:30;49.35;;;23.88;;
7142;SDS011;3613;48.902;9.204;2022-11-14T05:36:58;52.40;;;22.97;;
7142;SDS011;3613;48.902;9.204;2022-11-14T05:39:24;46.67;;;23.77;;
7142;SDS011;3613;48.902;9.204;2022-11-14T05:41:49;52.83;;;24.13;;
7142;SDS011;3613;48.902;9.204;2022-11-14T05:44:15;53.23;;;23.10;;
7142;SDS011;3613;48.902;9.204;2022-11-14T05:46:41;49.67;;;22.33;;
7142;SDS011;3613;48.902;9.204;2022-11-14T05:49:06;54.87;;;23.60;;
7142;SDS011;3613;48.902;9.204;2022-11-14T05:51:34;53.03;;;23.23;;
7142;SDS011;3613;48.902;9.204;2022-11-14T05:54:03;49.45;;;21.38;;
7142;SDS011;3613;48.902;9.204;2022-11-14T05:56:28;44.10;;;20.80;;
7142;SDS011;3613;48.902;9.204;2022-11-14T05:58:56;53.83;;;22.17;;
7142;SDS011;3613;48.902;9.204;2022-11-14T06:01:24;48.70;;;23.17;;
7142;SDS011;3613;48.902;9.204;2022-11-14T06:03:51;52.97;;;24.35;;
7142;SDS011;3613;48.902;9.204;2022-11-14T06:06:18;51.07;;;23.83;;
7142;SDS011;3613;48.902;9.204;2022-11-14T06:08:45;55.72;;;25.02;;
7142;SDS011;3613;48.902;9.204;2022-11-14T06:11:15;51.58;;;23.33;;
7142;SDS011;3613;48.902;9.204;2022-11-14T06:13:44;56.38;;;24.65;;
7142;SDS011;3613;48.902;9.204;2022-11-14T06:16:11;60.92;;;26.30;;
7142;SDS011;3613;48.902;9.204;2022-11-14T06:18:39;58.00;;;23.75;;
7142;SDS011;3613;48.902;9.204;2022-11-14T06:21:09;49.10;;;23.45;;
7142;SDS011;3613;48.902;9.204;2022-11-14T06:23:48;54.95;;;23.80;;
7142;SDS011;3613;48.902;9.204;2022-11-14T06:26:27;51.97;;;23.48;;
7142;SDS011;3613;48.902;9.204;2022-11-14T06:28:56;48.85;;;21.95;;
7142;SDS011;3613;48.902;9.204;2022-11-14T06:31:24;64.85;;;25.02;;
7142;SDS011;3613;48.902;9.204;2022-11-14T06:33:50;48.27;;;23.13;;
7142;SDS011;3613;48.902;9.204;2022-11-14T06:36:16;54.00;;;21.77;;
7142;SDS011;3613;48.902;9.204;2022-11-14T06:38:42;62.27;;;23.80;;
7142;SDS011;3613;48.902;9.204;2022-11-14T06:41:10;51.10;;;24.40;;
7142;SDS011;3613;48.902;9.204;2022-11-14T06:43:38;54.20;;;24.38;;
7142;SDS011;3613;48.902;9.204;2022-11-14T06:46:05;58.37;;;24.90;;
7142;SDS011;3613;48.902;9.204;2022-11-14T06:48:32;46.73;;;23.73;;
7142;SDS011;3613;48.902;9.204;2022-11-14T06:51:00;56.30;;;24.90;;
7142;SDS011;3613;48.902;9.204;2022-11-14T06:53:27;61.23;;;25.97;;
7142;SDS011;3613;48.902;9.204;2022-11-14T06:56:03;60.50;;;25.57;;
7142;SDS011;3613;48.902;9.204;2022-11-14T06:58:32;67.33;;;26.97;;
7142;SDS011;3613;48.902;9.204;2022-11-14T07:01:03;53.30;;;25.77;;
7142;SDS011;3613;48.902;9.204;2022-11-14T07:03:36;50.50;;;23.90;;
7142;SDS011;3613;48.902;9.204;2022-11-14T07:06:02;53.60;;;24.80;;
7142;SDS011;3613;48.902;9.204;2022-11-14T07:08:29;49.93;;;23.07;;
7142;SDS011;3613;48.902;9.204;2022-11-14T07:11:06;52.07;;;24.67;;
7142;SDS011;3613;48.902;9.204;2022-11-14T07:13:36;56.70;;;23.73;;
7142;SDS011;3613;48.902;9.204;2022-11-14T07:16:03;48.57;;;22.30;;
7142;SDS011;3613;48.902;9.204;2022-11-14T07:18:30;48.87;;;23.20;;
7142;SDS011;3613;48.902;9.204;2022-11-14T07:21:01;61.23;;;24.33;;
7142;SDS011;3613;48.902;9.204;2022-11-14T07:23:29;47.07;;;22.43;;
7142;SDS011;3613;48.902;9.204;2022-11-14T07:25:59;53.23;;;23.87;;
7142;SDS011;3613;48.902;9.204;2022-11-14T07:28:25;56.83;;;23.00;;
7142;SDS011;3613;48.902;9.204;2022-11-14T07:30:51;52.47;;;22.63;;
7142;SDS011;3613;48.902;9.204;2022-11-14T07:33:22;51.20;;;22.23;;
7142;SDS011;3613;48.902;9.204;2022-11-14T07:35:50;45.63;;;21.63;;
7142;SDS011;3613;48.902;9.204;2022-11-14T07:38:18;51.10;;;22.77;;
7142;SDS011;3613;48.902;9.204;2022-11-14T07:40:57;50.47;;;22.47;;
7142;SDS011;3613;48.902;9.204;2022-11-14T07:43:27;40.43;;;21.57;;
7142;SDS011;3613;48.902;9.204;2022-11-14T07:45:55;43.83;;;20.87;;
7142;SDS011;3613;48.902;9.204;2022-11-14T07:48:26;45.13;;;22.13;;
7142;SDS011;3613;48.902;9.204;2022-11-14T07:50:56;47.20;;;23.30;;
7142;SDS011;3613;48.902;9.204;2022-11-14T07:53:22;43.13;;;21.07;;
7142;SDS011;3613;48.902;9.204;2022-11-14T07:55:48;47.23;;;21.80;;
7142;SDS011;3613;48.902;9.204;2022-11-14T07:58:14;48.07;;;23.20;;
7142;SDS011;3613;48.902;9.204;2022-11-14T08:00:42;49.97;;;22.87;;
7142;SDS011;3613;48.902;9.204;2022-11-14T08:03:07;44.53;;;22.50;;
7142;SDS011;3613;48.902;9.204;2022-11-14T08:05:34;52.43;;;22.93;;
7142;SDS011;3613;48.902;9.204;2022-11-14T08:08:00;60.30;;;25.43;;
7142;SDS011;3613;48.902;9.204;2022-11-14T08:10:25;51.50;;;24.70;;
7142;SDS011;3613;48.902;9.204;2022-11-14T08:13:01;50.17;;;23.67;;
7142;SDS011;3613;48.902;9.204;2022-11-14T08:15:30;50.03;;;23.60;;
7142;SDS011;3613;48.902;9.204;2022-11-14T08:17:58;57.57;;;24.97;;
7142;SDS011;3613;48.902;9.204;2022-11-14T08:20:25;54.10;;;23.47;;
7142;SDS011;3613;48.902;9.204;2022-11-14T08:22:54;52.70;;;24.40;;
7142;SDS011;3613;48.902;9.204;2022-11-14T08:25:28;50.10;;;24.97;;
7142;SDS011;3613;48.902;9.204;2022-11-14T08:27:54;46.10;;;22.10;;
7142;SDS011;3613;48.902;9.204;2022-11-14T08:30:22;45.07;;;21.87;;
7142;SDS011;3613;48.902;9.204;2022-11-14T08:32:48;35.40;;;20.10;;
7142;SDS011;3613;48.902;9.204;2022-11-14T08:35:13;38.20;;;20.63;;
7142;SDS011;3613;48.902;9.204;2022-11-14T08:37:41;40.07;;;20.03;;
7142;SDS011;3613;48.902;9.204;2022-11-14T08:40:09;35.00;;;17.20;;
7142;SDS011;3613;48.902;9.204;2022-11-14T08:42:38;37.33;;;19.10;;
7142;SDS011;3613;48.902;9.204;2022-11-14T08:45:04;47.43;;;19.70;;
7142;SDS011;3613;48.902;9.204;2022-11-14T08:47:30;32.47;;;19.13;;
7142;SDS011;3613;48.902;9.204;2022-11-14T08:49:58;32.07;;;18.03;;
7142;SDS011;3613;48.902;9.204;2022-11-14T08:52:24;36.17;;;19.43;;
7142;SDS011;3613;48.902;9.204;2022-11-14T08:54:49;39.70;;;20.20;;
7142;SDS011;3613;48.902;9.204;2022-11-14T08:57:17;38.53;;;18.77;;
7142;SDS011;3613;48.902;9.204;2022-11-14T08:59:45;36.40;;;19.20;;
7142;SDS011;3613;48.902;9.204;2022-11-14T09:02:13;36.87;;;18.00;;
7142;SDS011;3613;48.902;9.204;2022-11-14T09:04:39;37.47;;;18.90;;
7142;SDS011;3613;48.902;9.204;2022-11-14T09:07:05;35.80;;;17.37;;
7142;SDS011;3613;48.902;9.204;2022-11-14T09:09:31;32.70;;;16.33;;
7142;SDS011;3613;48.902;9.204;2022-11-14T09:11:56;39.90;;;19.13;;
7142;SDS011;3613;48.902;9.204;2022-11-14T09:14:22;40.83;;;19.17;;
7142;SDS011;3613;48.902;9.204;2022-11-14T09:16:48;35.00;;;18.23;;
7142;SDS011;3613;48.902;9.204;2022-11-14T09:19:14;39.33;;;18.70;;
7142;SDS011;3613;48.902;9.204;2022-11-14T09:21:39;22.60;;;12.43;;
7142;SDS011;3613;48.902;9.204;2022-11-14T09:24:07;18.53;;;9.43;;
7142;SDS011;3613;48.902;9.204;2022-11-14T09:26:34;15.17;;;7.57;;
7142;SDS011;3613;48.902;9.204;2022-11-14T09:29:02;12.17;;;6.60;;
7142;SDS011;3613;48.902;9.204;2022-11-14T09:31:29;14.97;;;8.63;;
7142;SDS011;3613;48.902;9.204;2022-11-14T09:33:59;18.47;;;10.13;;
7142;SDS011;3613;48.902;9.204;2022-11-14T09:36:25;18.93;;;11.13;;
7142;SDS011;3613;48.902;9.204;2022-11-14T09:38:50;24.37;;;12.40;;
7142;SDS011;3613;48.902;9.204;2022-11-14T09:49:02;23.80;;;13.77;;
7142;SDS011;3613;48.902;9.204;2022-11-14T09:51:34;25.17;;;13.73;;
7142;SDS011;3613;48.902;9.204;2022-11-14T09:57:02;23.63;;;13.50;;
7142;SDS011;3613;48.902;9.204;2022-11-14T09:59:29;20.43;;;12.33;;
7142;SDS011;3613;48.902;9.204;2022-11-14T10:02:04;23.73;;;14.57;;
7142;SDS011;3613;48.902;9.204;2022-11-14T10:05:08;24.87;;;13.73;;
7142;SDS011;3613;48.902;9.204;2022-11-14T10:10:55;20.50;;;12.67;;
7142;SDS011;3613;48.902;9.204;2022-11-14T10:16:16;21.83;;;12.93;;
7142;SDS011;3613;48.902;9.204;2022-11-14T10:27:04;20.40;;;10.13;;
7142;SDS011;3613;48.902;9.204;2022-11-14T10:29:53;14.77;;;10.17;;
7142;SDS011;3613;48.902;9.204;2022-11-14T10:32:29;16.50;;;9.93;;
7142;SDS011;3613;48.902;9.204;2022-11-14T10:35:11;12.60;;;8.80;;
7142;SDS011;3613;48.902;9.204;2022-11-14T10:37:57;13.83;;;8.80;;
7142;SDS011;3613;48.902;9.204;2022-11-14T10:41:05;12.10;;;7.93;;
7142;SDS011;3613;48.902;9.204;2022-11-14T10:43:36;15.77;;;9.03;;
7142;SDS011;3613;48.902;9.204;2022-11-14T10:49:21;12.37;;;7.27;;
7142;SDS011;3613;48.902;9.204;2022-11-14T10:51:49;8.27;;;6.23;;
7142;SDS011;3613;48.902;9.204;2022-11-14T10:57:37;6.77;;;5.30;;
7142;SDS011;3613;48.902;9.204;2022-11-14T11:00:14;8.13;;;5.57;;
7142;SDS011;3613;48.902;9.204;2022-11-14T11:02:51;7.57;;;4.97;;
7142;SDS011;3613;48.902;9.204;2022-11-14T11:05:20;6.20;;;5.30;;
7142;SDS011;3613;48.902;9.204;2022-11-14T11:07:52;8.40;;;5.50;;
7142;SDS011;3613;48.902;9.204;2022-11-14T11:10:40;8.93;;;5.50;;
7142;SDS011;3613;48.902;9.204;2022-11-14T11:13:28;6.77;;;4.97;;
7142;SDS011;3613;48.902;9.204;2022-11-14T11:15:57;5.97;;;4.63;;
7142;SDS011;3613;48.902;9.204;2022-11-14T11:23:32;6.33;;;4.50;;
7142;SDS011;3613;48.902;9.204;2022-11-14T11:26:03;7.03;;;4.77;;
7142;SDS011;3613;48.902;9.204;2022-11-14T11:28:31;5.43;;;3.90;;
7142;SDS011;3613;48.902;9.204;2022-11-14T11:30:59;4.83;;;4.33;;
7142;SDS011;3613;48.902;9.204;2022-11-14T11:33:27;7.80;;;3.97;;
7142;SDS011;3613;48.902;9.204;2022-11-14T11:35:55;4.63;;;3.80;;
7142;SDS011;3613;48.902;9.204;2022-11-14T11:38:36;6.00;;;3.70;;
7142;SDS011;3613;48.902;9.204;2022-11-14T11:43:59;4.37;;;3.63;;
7142;SDS011;3613;48.902;9.204;2022-11-14T11:46:46;4.37;;;3.40;;
7142;SDS011;3613;48.902;9.204;2022-11-14T11:57:14;5.33;;;3.50;;
7142;SDS011;3613;48.902;9.204;2022-11-14T11:59:45;4.40;;;3.30;;
7142;SDS011;3613;48.902;9.204;2022-11-14T12:02:21;3.57;;;3.20;;
7142;SDS011;3613;48.902;9.204;2022-11-14T12:04:53;4.70;;;3.40;;
7142;SDS011;3613;48.902;9.204;2022-11-14T12:07:24;6.00;;;4.07;;
7142;SDS011;3613;48.902;9.204;2022-11-14T12:10:01;3.83;;;3.37;;
7142;SDS011;3613;48.902;9.204;2022-11-14T12:32:07;4.83;;;3.60;;
7142;SDS011;3613;48.902;9.204;2022-11-14T12:34:39;5.37;;;3.50;;
7142;SDS011;3613;48.902;9.204;2022-11-14T12:37:14;6.50;;;3.50;;
7142;SDS011;3613;48.902;9.204;2022-11-14T12:39:53;4.97;;;2.93;;
7142;SDS011;3613;48.902;9.204;2022-11-14T12:42:24;4.83;;;3.17;;
7142;SDS011;3613;48.902;9.204;2022-11-14T12:44:50;3.50;;;3.00;;
7142;SDS011;3613;48.902;9.204;2022-11-14T13:00:16;3.47;;;2.90;;
7142;SDS011;3613;48.902;9.204;2022-11-14T13:03:26;2.50;;;2.30;;
7142;SDS011;3613;48.902;9.204;2022-11-14T13:11:55;2.27;;;2.07;;
7142;SDS011;3613;48.902;9.204;2022-11-14T13:15:20;2.30;;;2.00;;
7142;SDS011;3613;48.902;9.204;2022-11-14T13:18:13;2.63;;;2.03;;
7142;SDS011;3613;48.902;9.204;2022-11-14T13:21:19;2.77;;;2.00;;
7142;SDS011;3613;48.902;9.204;2022-11-14T13:24:06;3.53;;;2.10;;
7142;SDS011;3613;48.902;9.204;2022-11-14T13:28:58;3.30;;;2.30;;
7142;SDS011;3613;48.902;9.204;2022-11-14T13:31:24;2.83;;;1.97;;
7142;SDS011;3613;48.902;9.204;2022-11-14T13:37:14;3.13;;;2.50;;
7142;SDS011;3613;48.902;9.204;2022-11-14T13:40:01;2.13;;;1.90;;
7142;SDS011;3613;48.902;9.204;2022-11-14T13:42:52;3.70;;;2.50;;
7142;SDS011;3613;48.902;9.204;2022-11-14T13:45:42;3.27;;;2.40;;
7142;SDS011;3613;48.902;9.204;2022-11-14T13:50:56;3.87;;;3.13;;
7142;SDS011;3613;48.902;9.204;2022-11-14T13:53:26;4.53;;;2.90;;
7142;SDS011;3613;48.902;9.204;2022-11-14T14:03:47;4.00;;;2.40;;
7142;SDS011;3613;48.902;9.204;2022-11-14T14:06:43;2.93;;;2.20;;
7142;SDS011;3613;48.902;9.204;2022-11-14T14:20:47;5.30;;;3.20;;
7142;SDS011;3613;48.902;9.204;2022-11-14T14:31:15;4.70;;;3.00;;
7142;SDS011;3613;48.902;9.204;2022-11-14T14:33:45;3.10;;;2.23;;
7142;SDS011;3613;48.902;9.204;2022-11-14T14:38:43;4.33;;;2.53;;
7142;SDS011;3613;48.902;9.204;2022-11-14T14:41:10;3.43;;;2.70;;
7142;SDS011;3613;48.902;9.204;2022-11-14T14:43:48;4.03;;;2.57;;
7142;SDS011;3613;48.902;9.204;2022-11-14T14:46:24;2.90;;;2.53;;
7142;SDS011;3613;48.902;9.204;2022-11-14T14:48:52;3.63;;;2.53;;
7142;SDS011;3613;48.902;9.204;2022-11-14T14:51:29;4.33;;;2.60;;
7142;SDS011;3613;48.902;9.204;2022-11-14T14:53:59;3.57;;;2.53;;
7142;SDS011;3613;48.902;9.204;2022-11-14T14:56:26;3.33;;;2.90;;
7142;SDS011;3613;48.902;9.204;2022-11-14T14:58:52;4.07;;;2.63;;
7142;SDS011;3613;48.902;9.204;2022-11-14T15:01:24;3.03;;;2.73;;
7142;SDS011;3613;48.902;9.204;2022-11-14T15:04:00;7.00;;;3.00;;
7142;SDS011;3613;48.902;9.204;2022-11-14T15:09:13;4.53;;;2.70;;
7142;SDS011;3613;48.902;9.204;2022-11-14T15:11:48;4.60;;;3.40;;
7142;SDS011;3613;48.902;9.204;2022-11-14T15:14:16;4.30;;;2.83;;
7142;SDS011;3613;48.902;9.204;2022-11-14T15:16:48;3.53;;;2.93;;
7142;SDS011;3613;48.902;9.204;2022-11-14T15:19:16;3.93;;;2.73;;
7142;SDS011;3613;48.902;9.204;2022-11-14T15:24:42;4.53;;;2.97;;
7142;SDS011;3613;48.902;9.204;2022-11-14T15:27:13;5.33;;;2.80;;
7142;SDS011;3613;48.902;9.204;2022-11-14T15:32:19;6.00;;;3.17;;
7142;SDS011;3613;48.902;9.204;2022-11-14T15:35:09;4.80;;;3.00;;
7142;SDS011;3613;48.902;9.204;2022-11-14T15:40:25;5.37;;;3.00;;
7142;SDS011;3613;48.902;9.204;2022-11-14T15:42:54;5.80;;;2.80;;
7142;SDS011;3613;48.902;9.204;2022-11-14T15:45:37;5.40;;;3.40;;
7142;SDS011;3613;48.902;9.204;2022-11-14T15:48:08;5.37;;;3.53;;
7142;SDS011;3613;48.902;9.204;2022-11-14T15:50:39;6.03;;;3.00;;
7142;SDS011;3613;48.902;9.204;2022-11-14T15:53:13;5.73;;;3.37;;
7142;SDS011;3613;48.902;9.204;2022-11-14T15:55:40;7.07;;;3.67;;
7142;SDS011;3613;48.902;9.204;2022-11-14T15:58:09;5.30;;;3.07;;
7142;SDS011;3613;48.902;9.204;2022-11-14T16:00:43;6.13;;;3.13;;
7142;SDS011;3613;48.902;9.204;2022-11-14T16:03:19;3.87;;;2.57;;
7142;SDS011;3613;48.902;9.204;2022-11-14T16:05:46;4.30;;;2.60;;
7142;SDS011;3613;48.902;9.204;2022-11-14T16:08:12;4.83;;;2.90;;
7142;SDS011;3613;48.902;9.204;2022-11-14T16:10:40;3.67;;;2.80;;
7142;SDS011;3613;48.902;9.204;2022-11-14T16:13:05;3.97;;;2.60;;
7142;SDS011;3613;48.902;9.204;2022-11-14T16:15:31;3.83;;;2.70;;
7142;SDS011;3613;48.902;9.204;2022-11-14T16:17:57;4.30;;;3.10;;
7142;SDS011;3613;48.902;9.204;2022-11-14T16:20:24;5.83;;;4.17;;
7142;SDS011;3613;48.902;9.204;2022-11-14T16:22:53;4.00;;;3.03;;
7142;SDS011;3613;48.902;9.204;2022-11-14T16:25:22;5.13;;;3.60;;
7142;SDS011;3613;48.902;9.204;2022-11-14T16:27:52;4.63;;;3.20;;
7142;SDS011;3613;48.902;9.204;2022-11-14T16:30:18;4.50;;;3.37;;
7142;SDS011;3613;48.902;9.204;2022-11-14T16:32:48;3.93;;;3.13;;
7142;SDS011;3613;48.902;9.204;2022-11-14T16:35:15;5.50;;;3.37;;
7142;SDS011;3613;48.902;9.204;2022-11-14T16:37:45;5.67;;;3.53;;
7142;SDS011;3613;48.902;9.204;2022-11-14T16:40:14;5.43;;;3.60;;
7142;SDS011;3613;48.902;9.204;2022-11-14T16:42:43;6.20;;;3.67;;
7142;SDS011;3613;48.902;9.204;2022-11-14T16:45:11;5.83;;;3.60;;
7142;SDS011;3613;48.902;9.204;2022-11-14T16:47:37;6.67;;;4.00;;
7142;SDS011;3613;48.902;9.204;2022-11-14T16:50:03;5.87;;;3.80;;
7142;SDS011;3613;48.902;9.204;2022-11-14T16:52:31;6.60;;;3.80;;
7142;SDS011;3613;48.902;9.204;2022-11-14T16:54:57;7.13;;;3.73;;
7142;SDS011;3613;48.902;9.204;2022-11-14T16:57:23;5.13;;;3.87;;
7142;SDS011;3613;48.902;9.204;2022-11-14T16:59:48;4.50;;;4.00;;
7142;SDS011;3613;48.902;9.204;2022-11-14T17:02:15;5.33;;;4.13;;
7142;SDS011;3613;48.902;9.204;2022-11-14T17:04:46;6.57;;;4.07;;
7142;SDS011;3613;48.902;9.204;2022-11-14T17:07:12;5.00;;;3.40;;
7142;SDS011;3613;48.902;9.204;2022-11-14T17:09:40;6.03;;;4.10;;
7142;SDS011;3613;48.902;9.204;2022-11-14T17:12:06;5.83;;;3.87;;
7142;SDS011;3613;48.902;9.204;2022-11-14T17:14:32;6.50;;;4.83;;
7142;SDS011;3613;48.902;9.204;2022-11-14T17:16:58;5.00;;;4.07;;
7142;SDS011;3613;48.902;9.204;2022-11-14T17:19:26;6.60;;;4.13;;
7142;SDS011;3613;48.902;9.204;2022-11-14T17:21:53;7.13;;;4.77;;
7142;SDS011;3613;48.902;9.204;2022-11-14T17:24:19;5.80;;;3.60;;
7142;SDS011;3613;48.902;9.204;2022-11-14T17:26:45;5.97;;;3.03;;
7142;SDS011;3613;48.902;9.204;2022-11-14T17:29:13;4.57;;;3.40;;
7142;SDS011;3613;48.902;9.204;2022-11-14T17:31:41;5.53;;;3.73;;
7142;SDS011;3613;48.902;9.204;2022-11-14T17:34:09;6.10;;;4.10;;